createdAt,value
2023-12-11T00:02:39.571Z,977.12
2023-12-11T00:13:02.364Z,977.25
2023-12-11T00:23:25.149Z,977.35
2023-12-11T00:33:48.024Z,977.6
2023-12-11T00:44:10.975Z,977.55
2023-12-11T00:54:33.693Z,977.69
2023-12-11T01:04:56.094Z,977.66
2023-12-11T01:15:18.815Z,977.83
2023-12-11T01:25:41.747Z,977.79
2023-12-11T01:36:04.019Z,978.04
2023-12-11T01:46:26.289Z,978.14
2023-12-11T01:56:48.946Z,978.25
2023-12-11T02:07:11.850Z,978.32
2023-12-11T02:17:34.972Z,978.32
2023-12-11T02:27:57.406Z,978.43
2023-12-11T02:38:20.175Z,978.45
2023-12-11T02:48:43.402Z,978.48
2023-12-11T02:59:06.765Z,978.52
2023-12-11T03:09:29.312Z,978.5
2023-12-11T03:19:51.605Z,978.49
2023-12-11T03:30:14.293Z,978.61
2023-12-11T03:40:37.130Z,978.62
2023-12-11T03:51:00.123Z,978.66
2023-12-11T04:01:22.957Z,978.61
2023-12-11T04:11:45.928Z,978.67
2023-12-11T04:22:08.630Z,978.61
2023-12-11T04:32:31.079Z,978.55
2023-12-11T04:42:54.233Z,978.62
2023-12-11T04:53:16.947Z,978.66
2023-12-11T05:03:39.790Z,978.54
2023-12-11T05:14:02.894Z,978.43
2023-12-11T05:24:25.502Z,978.37
2023-12-11T05:34:48.758Z,978.42
2023-12-11T05:45:11.561Z,978.41
2023-12-11T05:55:33.984Z,978.49
2023-12-11T06:05:56.243Z,978.45
2023-12-11T06:16:19.209Z,978.43
2023-12-11T06:26:41.752Z,978.26
2023-12-11T06:37:05.164Z,978.22
2023-12-11T06:47:29.723Z,978.23
2023-12-11T06:57:52.718Z,978.16
2023-12-11T07:08:15.270Z,978.04
2023-12-11T07:18:38.044Z,978.08
2023-12-11T07:29:01.042Z,978.2
2023-12-11T07:39:24.120Z,978.12
2023-12-11T07:49:46.646Z,978.24
2023-12-11T08:00:08.916Z,978.18
2023-12-11T08:10:32.129Z,978.23
2023-12-11T08:20:55.238Z,978.23
2023-12-11T08:31:17.982Z,978.26
2023-12-11T08:41:40.930Z,978.32
2023-12-11T08:52:03.793Z,978.29
2023-12-11T09:02:26.591Z,978.25
2023-12-11T09:12:49.370Z,978.21
2023-12-11T09:23:11.755Z,978.25
2023-12-11T09:33:34.859Z,978.22
2023-12-11T09:43:59.334Z,978.26
2023-12-11T09:54:21.537Z,978.17
2023-12-11T10:04:44.119Z,978.08
2023-12-11T10:15:07.177Z,978.03
2023-12-11T10:25:29.714Z,977.91
2023-12-11T10:35:53.079Z,977.78
2023-12-11T10:46:16.272Z,977.73
2023-12-11T10:56:39.293Z,977.63
2023-12-11T11:07:02.310Z,977.49
2023-12-11T11:17:25.042Z,977.39
2023-12-11T11:27:47.921Z,977.34
2023-12-11T11:38:10.958Z,977.25
2023-12-11T11:48:33.478Z,977.2
2023-12-11T11:58:55.991Z,977.02
2023-12-11T12:09:18.484Z,977.05
2023-12-11T12:19:41.204Z,977.09
2023-12-11T12:30:03.395Z,976.99
2023-12-11T12:40:25.985Z,977.08
2023-12-11T12:50:49.010Z,977.08
2023-12-11T13:01:11.611Z,977.14
2023-12-11T13:11:34.193Z,977.15
2023-12-11T13:21:56.645Z,977.29
2023-12-11T13:32:18.888Z,977.4
2023-12-11T13:42:41.405Z,977.43
2023-12-11T13:53:03.992Z,977.59
2023-12-11T14:03:26.671Z,977.68
2023-12-11T14:13:49.285Z,977.93
2023-12-11T14:24:11.605Z,978.08
2023-12-11T14:34:34.521Z,978.29
2023-12-11T14:44:58.104Z,978.51
2023-12-11T14:55:26.818Z,978.79
2023-12-11T15:05:50.288Z,979.11
2023-12-11T15:16:13.143Z,979.45
2023-12-11T15:26:35.649Z,979.66
2023-12-11T15:36:58.382Z,980
2023-12-11T15:47:21.078Z,980.17
2023-12-11T15:57:43.909Z,980.36
2023-12-11T16:08:07.047Z,980.43
2023-12-11T16:18:29.854Z,980.52
2023-12-11T16:28:53.345Z,980.74
2023-12-11T16:39:15.657Z,980.94
2023-12-11T16:50:06.116Z,981.11
2023-12-11T17:00:31.840Z,981.29
2023-12-11T17:10:53.561Z,981.55
2023-12-11T17:21:34.323Z,981.76
2023-12-11T17:31:57.524Z,981.96
2023-12-11T17:42:20.354Z,982.13
2023-12-11T17:52:42.664Z,982.2
2023-12-11T18:03:05.271Z,982.48
2023-12-11T18:13:28.060Z,982.59
2023-12-11T18:23:50.989Z,982.81
2023-12-11T18:34:14.363Z,983.09
2023-12-11T18:44:36.894Z,983.3
2023-12-11T18:54:59.019Z,983.42
2023-12-11T19:05:22.449Z,983.52
2023-12-11T19:15:45.207Z,983.78
2023-12-11T19:26:07.293Z,983.98
2023-12-11T19:36:29.934Z,984.07
2023-12-11T19:46:52.068Z,984.1
2023-12-11T19:57:14.443Z,984.38
2023-12-11T20:07:37.317Z,984.6
2023-12-11T20:18:00.291Z,984.74
2023-12-11T20:28:23.441Z,984.87
2023-12-11T20:38:46.192Z,985.05
2023-12-11T20:49:09.373Z,985.32
2023-12-11T20:59:31.924Z,985.51
2023-12-11T21:09:54.451Z,985.62
2023-12-11T21:20:17.336Z,985.73
2023-12-11T21:30:39.214Z,985.83
2023-12-11T21:41:01.129Z,985.87
2023-12-11T21:51:23.728Z,985.92
2023-12-11T22:01:48.354Z,986.05
2023-12-11T22:12:11.439Z,986.3
2023-12-11T22:22:33.715Z,986.44
2023-12-11T22:32:55.963Z,986.6
2023-12-11T22:43:18.420Z,986.75
2023-12-11T22:53:41.136Z,986.99
2023-12-11T23:04:03.876Z,987.04
2023-12-11T23:14:26.831Z,987.11
2023-12-11T23:24:49.551Z,987.17
2023-12-11T23:35:12.015Z,987.22
2023-12-11T23:45:34.669Z,987.3
2023-12-11T23:55:57.439Z,987.4
